Escanaba, MI

9:52 PM EST on December 17, 2014 (GMT -0500)
Delta County | Change Station
CLOSE
Current Station
Airport
Location: Escanaba,
Elevation: 607 ft
Nearby Weather Stations

Elev 607 ft 45.72 °N, 87.09 °W | Updated 17 minutes ago

Overcast
Overcast
28 °F
Feels Like 20 °F
N
9
Wind Variable Wind from NNW

Today
High -- | Low -- °F
--% Chance of Precip.
Yesterday
High -- | Low -- °F
Precip. -- in
8:24 AM 5:05 PM
Waning Crescent, 18% visible
Pressure 30.17 in
Visibility 10.0 miles
Clouds Overcast 1300 ft
Windchill 20 °F
Dew Point 21 °F
Humidity 74%
Rainfall 0.00 in
Snow Depth Not available.
UV 0 out of 12
Pollen .10 out of 12
Air Quality Not available.
Flu Activity Not available.
METAR KESC 180235Z AUTO 34008KT 320V030 10SM OVC013 M02/M06 A3017 RMK AO1

More Conditions Fewer Conditions

Pressure 30.17 in
Visibility 10.0 miles
Clouds Overcast 1300 ft
Windchill 20 °F
Dew Point 21 °F
Humidity 74%
Rainfall 0.00 in
Snow Depth Not available.
UV 0 out of 12
Pollen .10 out of 12
Air Quality Not available.
Flu Activity Not available.
METAR KESC 180235Z AUTO 34008KT 320V030 10SM OVC013 M02/M06 A3017 RMK AO1

More Conditions Fewer Conditions

10-Day Weather Forecast

Almanac

Astronomy

Dec. 17, 2014 Rise Set
Actual Time
Civil Twilight
Nautical Twilight
Astronomical Twilight
Moon
Length of Visible Light
Length of Day
Tomorrow will be .
, % of the Moon is Illuminated

Today's Extremes

State Highs State Lows

Community

WunderPhotos

Upload Photos

1,778,871 photos uploaded!

WunderBlogs® & News

Nearby

Air Quality

  Air Quality AQ Index Pollutant
Not available.

Snow Depth

Station Depth Elevation

Earthquake Activity

City Distance Mag. Time & Date
Minimum magnitude displayed is 2.5.

Coastal Water Temperatures

Place Temperature

Nearby Weather Stations